DAL8976 SVMI-SKBO
Flight info
| Callsign | DAL8976 |
|---|---|
| Flight time | N/A |
| Altitude | 36000 |
| Route | BUTSA2 PBL UP533 KIKAS UW44 BUV DCT VULAM VULAM4F |
| Aircraft | A320/M-SDE3FGHIRWY/LB1 |
Departure
| Time | 2026-05-04 03:13 |
|---|---|
| Airport | Maiquetía Simón Bolívar International Airport (SVMI) |
Arrival
| Time | N/A |
|---|---|
| Airport | El Dorado International Airport (SKBO) |
| Time | Latitude | Longitude | Altitude | Speed | Heading |
|---|---|---|---|---|---|
| 2026-05-04 03:00 | 10.59836 | -67.00588 | 200 ft | 0 kts | 177° |
| 2026-05-04 03:05 | 10.59837 | -67.00588 | 200 ft | 1 kts | 177° |
| 2026-05-04 03:05 | 10.59852 | -67.00589 | 205 ft | 3 kts | 181° |
| 2026-05-04 03:05 | 10.59872 | -67.00588 | 201 ft | 3 kts | 188° |
| 2026-05-04 03:05 | 10.59892 | -67.00583 | 201 ft | 3 kts | 201° |
| 2026-05-04 03:06 | 10.59908 | -67.00574 | 207 ft | 3 kts | 231° |
| 2026-05-04 03:06 | 10.59915 | -67.00563 | 204 ft | 1 kts | 266° |
| 2026-05-04 03:06 | 10.59915 | -67.00562 | 204 ft | 1 kts | 267° |
| 2026-05-04 03:09 | 10.59915 | -67.00567 | 211 ft | 5 kts | 267° |
| 2026-05-04 03:10 | 10.59911 | -67.00646 | 203 ft | 11 kts | 267° |
| 2026-05-04 03:10 | 10.59909 | -67.00718 | 205 ft | 15 kts | 269° |
| 2026-05-04 03:10 | 10.59906 | -67.00848 | 208 ft | 17 kts | 268° |
| 2026-05-04 03:10 | 10.59899 | -67.00958 | 211 ft | 14 kts | 266° |
| 2026-05-04 03:11 | 10.59894 | -67.01044 | 219 ft | 11 kts | 268° |
| 2026-05-04 03:11 | 10.59894 | -67.01113 | 215 ft | 13 kts | 270° |
| 2026-05-04 03:11 | 10.59905 | -67.01220 | 218 ft | 14 kts | 304° |
| 2026-05-04 03:11 | 10.59998 | -67.01249 | 219 ft | 19 kts | 357° |
| 2026-05-04 03:12 | 10.60138 | -67.01254 | 219 ft | 21 kts | 359° |
| 2026-05-04 03:12 | 10.60285 | -67.01260 | 223 ft | 20 kts | 356° |
| 2026-05-04 03:12 | 10.60365 | -67.01256 | 221 ft | 7 kts | 26° |
| 2026-05-04 03:12 | 10.60378 | -67.01215 | 219 ft | 9 kts | 86° |
| 2026-05-04 03:13 | 10.60387 | -67.00939 | 214 ft | 82 kts | 88° |
| 2026-05-04 03:13 | 10.60413 | -67.00081 | 206 ft | 158 kts | 88° |
| 2026-05-04 03:13 | 10.60457 | -66.98841 | 661 ft | 183 kts | 87° |
| 2026-05-04 03:13 | 10.60541 | -66.97555 | 1657 ft | 181 kts | 80° |
| 2026-05-04 03:14 | 10.60774 | -66.96262 | 2479 ft | 194 kts | 81° |
| 2026-05-04 03:14 | 10.61025 | -66.94846 | 2818 ft | 216 kts | 81° |
| 2026-05-04 03:14 | 10.61301 | -66.93279 | 3284 ft | 231 kts | 81° |
| 2026-05-04 03:14 | 10.61665 | -66.91672 | 3904 ft | 237 kts | 66° |
| 2026-05-04 03:15 | 10.62766 | -66.90442 | 4576 ft | 242 kts | 27° |
| 2026-05-04 03:15 | 10.64402 | -66.89975 | 5268 ft | 248 kts | 7° |
| 2026-05-04 03:15 | 10.66138 | -66.89895 | 6002 ft | 252 kts | 0° |
| 2026-05-04 03:15 | 10.67908 | -66.89931 | 6689 ft | 257 kts | 359° |
| 2026-05-04 03:16 | 10.69706 | -66.89977 | 6924 ft | 259 kts | 360° |
| 2026-05-04 03:16 | 10.71503 | -66.89995 | 6999 ft | 258 kts | 0° |
| 2026-05-04 03:16 | 10.73291 | -66.89983 | 7012 ft | 258 kts | 2° |
| 2026-05-04 03:16 | 10.75108 | -66.89944 | 7586 ft | 260 kts | 3° |
| 2026-05-04 03:17 | 10.76916 | -66.89889 | 8384 ft | 260 kts | 5° |
| 2026-05-04 03:17 | 10.78723 | -66.89826 | 9146 ft | 260 kts | 5° |
| 2026-05-04 03:17 | 10.80541 | -66.89837 | 9877 ft | 265 kts | 355° |
| 2026-05-04 03:17 | 10.82287 | -66.90508 | 10490 ft | 275 kts | 327° |
| 2026-05-04 03:18 | 10.83613 | -66.91922 | 11073 ft | 283 kts | 301° |
| 2026-05-04 03:18 | 10.84200 | -66.93841 | 11628 ft | 289 kts | 273° |
| 2026-05-04 03:18 | 10.84223 | -66.95899 | 12249 ft | 293 kts | 270° |
| 2026-05-04 03:18 | 10.84210 | -66.98020 | 12425 ft | 315 kts | 269° |
| 2026-05-04 03:19 | 10.84191 | -67.00330 | 12560 ft | 338 kts | 269° |
| 2026-05-04 03:19 | 10.84168 | -67.02800 | 12684 ft | 360 kts | 269° |
| 2026-05-04 03:19 | 10.84148 | -67.05418 | 12848 ft | 378 kts | 269° |
| 2026-05-04 03:19 | 10.84134 | -67.08120 | 13307 ft | 386 kts | 270° |
| 2026-05-04 03:20 | 10.84124 | -67.10874 | 13827 ft | 391 kts | 270° |
| 2026-05-04 03:20 | 10.84116 | -67.13655 | 14312 ft | 396 kts | 270° |
| 2026-05-04 03:20 | 10.84107 | -67.16467 | 14830 ft | 398 kts | 270° |
| 2026-05-04 03:20 | 10.84087 | -67.19296 | 15345 ft | 401 kts | 268° |
| 2026-05-04 03:21 | 10.83746 | -67.22119 | 15856 ft | 404 kts | 257° |
| 2026-05-04 03:21 | 10.83011 | -67.24885 | 16358 ft | 406 kts | 253° |
| 2026-05-04 03:21 | 10.82235 | -67.27665 | 16858 ft | 409 kts | 253° |
| 2026-05-04 03:21 | 10.81462 | -67.30458 | 17385 ft | 411 kts | 253° |
| 2026-05-04 03:22 | 10.80688 | -67.33273 | 17870 ft | 415 kts | 253° |
| 2026-05-04 03:22 | 10.79909 | -67.36103 | 18361 ft | 418 kts | 253° |
| 2026-05-04 03:22 | 10.79119 | -67.38964 | 18842 ft | 419 kts | 253° |
| 2026-05-04 03:22 | 10.78328 | -67.41819 | 19334 ft | 420 kts | 254° |
| 2026-05-04 03:23 | 10.77537 | -67.44677 | 19833 ft | 421 kts | 254° |
| 2026-05-04 03:23 | 10.76742 | -67.47543 | 20332 ft | 421 kts | 254° |
| 2026-05-04 03:23 | 10.75947 | -67.50413 | 20827 ft | 422 kts | 254° |
| 2026-05-04 03:23 | 10.75148 | -67.53292 | 21305 ft | 423 kts | 255° |
| 2026-05-04 03:24 | 10.74344 | -67.56179 | 21782 ft | 425 kts | 255° |
| 2026-05-04 03:24 | 10.73541 | -67.59071 | 22251 ft | 425 kts | 255° |
| 2026-05-04 03:24 | 10.72737 | -67.61970 | 22708 ft | 427 kts | 255° |
| 2026-05-04 03:24 | 10.71932 | -67.64878 | 23137 ft | 428 kts | 256° |
| 2026-05-04 03:25 | 10.71125 | -67.67794 | 23560 ft | 429 kts | 256° |
| 2026-05-04 03:25 | 10.70315 | -67.70720 | 23900 ft | 430 kts | 256° |
| 2026-05-04 03:25 | 10.69502 | -67.73652 | 24226 ft | 432 kts | 256° |
| 2026-05-04 03:25 | 10.68960 | -67.75602 | 24442 ft | 433 kts | 256° |
| 2026-05-04 03:26 | 10.68141 | -67.78551 | 24758 ft | 434 kts | 255° |
| 2026-05-04 03:26 | 10.67318 | -67.81511 | 25064 ft | 436 kts | 255° |
| 2026-05-04 03:26 | 10.66489 | -67.84475 | 25366 ft | 437 kts | 254° |
| 2026-05-04 03:26 | 10.65378 | -67.87363 | 25660 ft | 440 kts | 244° |
| 2026-05-04 03:27 | 10.63787 | -67.90034 | 25956 ft | 443 kts | 234° |
| 2026-05-04 03:27 | 10.61799 | -67.92441 | 26254 ft | 445 kts | 230° |
| 2026-05-04 03:27 | 10.59738 | -67.94799 | 26544 ft | 447 kts | 230° |
| 2026-05-04 03:27 | 10.57675 | -67.97162 | 26827 ft | 448 kts | 230° |
| 2026-05-04 03:28 | 10.55608 | -67.99534 | 27110 ft | 449 kts | 230° |
| 2026-05-04 03:28 | 10.53531 | -68.01918 | 27384 ft | 451 kts | 230° |
| 2026-05-04 03:28 | 10.51446 | -68.04310 | 27659 ft | 452 kts | 230° |
| 2026-05-04 03:28 | 10.49355 | -68.06706 | 27927 ft | 454 kts | 229° |
| 2026-05-04 03:29 | 10.47280 | -68.09078 | 28174 ft | 455 kts | 229° |
| 2026-05-04 03:29 | 10.45154 | -68.11524 | 28432 ft | 457 kts | 230° |
| 2026-05-04 03:29 | 10.43080 | -68.13920 | 28685 ft | 458 kts | 230° |
| 2026-05-04 03:29 | 10.40947 | -68.16389 | 28927 ft | 459 kts | 230° |
| 2026-05-04 03:30 | 10.38837 | -68.18831 | 29162 ft | 461 kts | 230° |
| 2026-05-04 03:30 | 10.36719 | -68.21278 | 29395 ft | 462 kts | 229° |
| 2026-05-04 03:30 | 10.34616 | -68.23703 | 29630 ft | 463 kts | 229° |
| 2026-05-04 03:30 | 10.32487 | -68.26151 | 29846 ft | 464 kts | 229° |
| 2026-05-04 03:31 | 10.30352 | -68.28610 | 30063 ft | 465 kts | 229° |
| 2026-05-04 03:31 | 10.28213 | -68.31076 | 30247 ft | 465 kts | 229° |
| 2026-05-04 03:31 | 10.26075 | -68.33541 | 30494 ft | 464 kts | 229° |
| 2026-05-04 03:31 | 10.23941 | -68.36002 | 30754 ft | 463 kts | 229° |
| 2026-05-04 03:32 | 10.21811 | -68.38457 | 30990 ft | 463 kts | 229° |
| 2026-05-04 03:32 | 10.19684 | -68.40905 | 31233 ft | 462 kts | 229° |
| 2026-05-04 03:32 | 10.17554 | -68.43352 | 31484 ft | 462 kts | 229° |
| 2026-05-04 03:32 | 10.15429 | -68.45790 | 31728 ft | 461 kts | 229° |
| 2026-05-04 03:33 | 10.13308 | -68.48224 | 31969 ft | 460 kts | 229° |
| 2026-05-04 03:33 | 10.11192 | -68.50657 | 32225 ft | 460 kts | 229° |
| 2026-05-04 03:33 | 10.09079 | -68.53090 | 32480 ft | 459 kts | 229° |
| 2026-05-04 03:33 | 10.06973 | -68.55512 | 32732 ft | 459 kts | 229° |
| 2026-05-04 03:34 | 10.04856 | -68.57945 | 32985 ft | 458 kts | 229° |
| 2026-05-04 03:34 | 10.02750 | -68.60363 | 33248 ft | 457 kts | 229° |
| 2026-05-04 03:34 | 10.00647 | -68.62781 | 33508 ft | 457 kts | 229° |
| 2026-05-04 03:34 | 9.98548 | -68.65199 | 33766 ft | 456 kts | 229° |
| 2026-05-04 03:35 | 9.96453 | -68.67611 | 34027 ft | 455 kts | 229° |
| 2026-05-04 03:35 | 9.94365 | -68.70020 | 34259 ft | 455 kts | 229° |
| 2026-05-04 03:35 | 9.92277 | -68.72434 | 34485 ft | 455 kts | 229° |
| 2026-05-04 03:35 | 9.90193 | -68.74841 | 34702 ft | 454 kts | 229° |
| 2026-05-04 03:36 | 9.88105 | -68.77248 | 34920 ft | 454 kts | 229° |
| 2026-05-04 03:36 | 9.86018 | -68.79649 | 35115 ft | 454 kts | 229° |
| 2026-05-04 03:36 | 9.83931 | -68.82050 | 35299 ft | 453 kts | 229° |
| 2026-05-04 03:36 | 9.81845 | -68.84452 | 35508 ft | 453 kts | 229° |
| 2026-05-04 03:37 | 9.79764 | -68.86847 | 35690 ft | 453 kts | 229° |
| 2026-05-04 03:37 | 9.77680 | -68.89246 | 35866 ft | 453 kts | 229° |
| 2026-05-04 03:37 | 9.75598 | -68.91642 | 35987 ft | 454 kts | 229° |
| 2026-05-04 03:38 | 9.71422 | -68.96441 | 35998 ft | 454 kts | 229° |
| 2026-05-04 03:38 | 9.67234 | -69.01235 | 36002 ft | 454 kts | 229° |
| 2026-05-04 03:39 | 9.63050 | -69.06032 | 36005 ft | 454 kts | 229° |
| 2026-05-04 03:39 | 9.58875 | -69.10830 | 35989 ft | 454 kts | 229° |
| 2026-05-04 03:40 | 9.54732 | -69.15600 | 35999 ft | 454 kts | 229° |
| 2026-05-04 03:40 | 9.50560 | -69.20397 | 35998 ft | 454 kts | 229° |
| 2026-05-04 03:41 | 9.46376 | -69.25196 | 35988 ft | 454 kts | 229° |
| 2026-05-04 03:41 | 9.42192 | -69.29996 | 36003 ft | 455 kts | 229° |
| 2026-05-04 03:42 | 9.38010 | -69.34799 | 36004 ft | 455 kts | 229° |
| 2026-05-04 03:42 | 9.33830 | -69.39589 | 36010 ft | 455 kts | 229° |
| 2026-05-04 03:43 | 9.29633 | -69.44397 | 36011 ft | 455 kts | 229° |
| 2026-05-04 03:43 | 9.25444 | -69.49203 | 36014 ft | 455 kts | 229° |
| 2026-05-04 03:44 | 9.21247 | -69.54012 | 36012 ft | 456 kts | 229° |
| 2026-05-04 03:44 | 9.17047 | -69.58820 | 36009 ft | 456 kts | 229° |
| 2026-05-04 03:45 | 9.12840 | -69.63637 | 36015 ft | 457 kts | 229° |
| 2026-05-04 03:45 | 9.08624 | -69.68459 | 36013 ft | 457 kts | 229° |
| 2026-05-04 03:46 | 9.04410 | -69.73278 | 36014 ft | 457 kts | 229° |
| 2026-05-04 03:46 | 9.00193 | -69.78103 | 36015 ft | 457 kts | 229° |
| 2026-05-04 03:47 | 8.95972 | -69.82917 | 36015 ft | 457 kts | 229° |
| 2026-05-04 03:47 | 8.91753 | -69.87731 | 36015 ft | 457 kts | 228° |
| 2026-05-04 03:48 | 8.87552 | -69.92529 | 36015 ft | 457 kts | 228° |
| 2026-05-04 03:48 | 8.83327 | -69.97357 | 36027 ft | 457 kts | 228° |
| 2026-05-04 03:49 | 8.79111 | -70.02169 | 36008 ft | 457 kts | 228° |
| 2026-05-04 03:49 | 8.74914 | -70.06952 | 36028 ft | 457 kts | 228° |
| 2026-05-04 03:50 | 8.70695 | -70.11769 | 36031 ft | 457 kts | 228° |
| 2026-05-04 03:50 | 8.66470 | -70.16592 | 36015 ft | 457 kts | 228° |
| 2026-05-04 03:51 | 8.62247 | -70.21401 | 36030 ft | 457 kts | 228° |
| 2026-05-04 03:51 | 8.58000 | -70.26162 | 36031 ft | 458 kts | 227° |
| 2026-05-04 03:52 | 8.53658 | -70.30899 | 36011 ft | 458 kts | 226° |
| 2026-05-04 03:52 | 8.49313 | -70.35614 | 36025 ft | 458 kts | 226° |
| 2026-05-04 03:53 | 8.44984 | -70.40343 | 36024 ft | 459 kts | 227° |
| 2026-05-04 03:53 | 8.40661 | -70.45085 | 36011 ft | 459 kts | 227° |
| 2026-05-04 03:54 | 8.36367 | -70.49809 | 36035 ft | 459 kts | 227° |
| 2026-05-04 03:54 | 8.32043 | -70.54554 | 36036 ft | 459 kts | 227° |
| 2026-05-04 03:55 | 8.27711 | -70.59295 | 36020 ft | 459 kts | 227° |
| 2026-05-04 03:55 | 8.23390 | -70.64035 | 36047 ft | 459 kts | 227° |
| 2026-05-04 03:56 | 8.19062 | -70.68771 | 36048 ft | 459 kts | 227° |
| 2026-05-04 03:56 | 8.14731 | -70.73505 | 36030 ft | 459 kts | 227° |
| 2026-05-04 03:57 | 8.10400 | -70.78236 | 36053 ft | 459 kts | 227° |
| 2026-05-04 03:57 | 8.06064 | -70.82971 | 36055 ft | 459 kts | 227° |